Time;durP1;ratioP1;P1;durP2;ratioP2;P2;SDS_P1;SDS_P2;PMS_P1;PMS_P2;Temp;Humidity;BMP_temperature;BMP_pressure;BME280_temperature;BME280_humidity;BME280_pressure;Samples;Min_cycle;Max_cycle;Signal;HPM_P1;HPM_P2
2023/12/18 00:00:00;;;;;;;14.30;11.10;;;;;;;;;;5078065;28;20041;-85
2023/12/18 00:02:26;;;;;;;15.52;10.75;;;;;;;;;;5066917;28;20079;-84
2023/12/18 00:04:53;;;;;;;18.20;10.27;;;;;;;;;;5087187;28;20119;-85
2023/12/18 00:07:19;;;;;;;14.93;10.55;;;;;;;;;;5088936;28;20048;-85
2023/12/18 00:09:46;;;;;;;16.63;10.75;;;;;;;;;;5089155;28;20044;-85
2023/12/18 00:12:13;;;;;;;14.95;10.32;;;;;;;;;;5076378;28;20048;-84
2023/12/18 00:14:39;;;;;;;16.90;10.60;;;;;;;;;;5091398;28;20048;-85
2023/12/18 00:17:06;;;;;;;14.45;10.27;;;;;;;;;;5083695;28;20053;-84
2023/12/18 00:19:33;;;;;;;15.32;10.48;;;;;;;;;;5088284;28;20044;-84
2023/12/18 00:22:00;;;;;;;20.10;11.15;;;;;;;;;;5091927;28;20083;-84
2023/12/18 00:24:27;;;;;;;16.20;10.35;;;;;;;;;;5067630;28;20044;-84
2023/12/18 00:26:53;;;;;;;12.35;9.15;;;;;;;;;;5087407;28;20056;-83
2023/12/18 00:29:20;;;;;;;13.55;10.07;;;;;;;;;;5089621;28;20059;-83
2023/12/18 00:31:48;;;;;;;13.95;9.93;;;;;;;;;;5090937;28;20318;-84
2023/12/18 00:34:14;;;;;;;12.82;9.60;;;;;;;;;;5092565;28;20490;-83
2023/12/18 00:36:43;;;;;;;14.98;9.55;;;;;;;;;;5089646;28;20055;-84
2023/12/18 00:39:11;;;;;;;35.17;11.35;;;;;;;;;;5068449;28;20049;-83
2023/12/18 00:41:37;;;;;;;17.25;9.73;;;;;;;;;;5064120;28;20049;-85
2023/12/18 00:44:04;;;;;;;15.95;10.13;;;;;;;;;;5084604;28;20464;-83
2023/12/18 00:46:31;;;;;;;16.15;9.63;;;;;;;;;;5083659;28;20056;-84
2023/12/18 00:48:58;;;;;;;13.88;8.85;;;;;;;;;;5081355;28;20060;-83
2023/12/18 00:51:25;;;;;;;18.40;9.38;;;;;;;;;;5085326;28;20052;-84
2023/12/18 00:53:51;;;;;;;12.80;9.38;;;;;;;;;;5071267;28;20410;-83
2023/12/18 00:56:18;;;;;;;13.57;8.90;;;;;;;;;;5084004;28;20532;-84
2023/12/18 00:58:45;;;;;;;12.93;10.13;;;;;;;;;;5087784;28;20079;-84
2023/12/18 01:01:12;;;;;;;13.05;8.68;;;;;;;;;;5085744;28;20052;-84
2023/12/18 01:03:39;;;;;;;16.90;10.40;;;;;;;;;;5085672;28;20109;-83
2023/12/18 01:06:06;;;;;;;19.20;10.18;;;;;;;;;;5082658;28;20090;-84
2023/12/18 01:08:33;;;;;;;15.75;9.23;;;;;;;;;;5083005;28;20066;-84
2023/12/18 01:11:00;;;;;;;27.63;9.13;;;;;;;;;;5063416;28;20048;-84
2023/12/18 01:13:27;;;;;;;16.10;9.20;;;;;;;;;;5076020;28;20056;-85
2023/12/18 01:16:03;;;;;;;18.92;9.27;;;;;;;;;;5059461;28;20053;-83
2023/12/18 01:18:29;;;;;;;10.52;8.32;;;;;;;;;;5078598;28;20075;-84
2023/12/18 01:20:56;;;;;;;13.60;9.00;;;;;;;;;;5085807;28;20047;-83
2023/12/18 01:23:23;;;;;;;12.15;9.57;;;;;;;;;;5082993;28;20155;-83
2023/12/18 01:25:49;;;;;;;14.77;9.43;;;;;;;;;;5082154;28;20071;-83
2023/12/18 01:28:16;;;;;;;13.73;9.13;;;;;;;;;;5081581;28;20052;-84
2023/12/18 01:30:43;;;;;;;14.10;9.77;;;;;;;;;;5080320;28;20098;-84
2023/12/18 01:33:10;;;;;;;14.70;10.00;;;;;;;;;;5082882;28;20056;-84
2023/12/18 01:35:37;;;;;;;14.65;9.65;;;;;;;;;;5083551;28;20135;-84
2023/12/18 01:38:03;;;;;;;18.30;8.77;;;;;;;;;;5081912;28;20076;-84
2023/12/18 01:40:30;;;;;;;14.90;10.13;;;;;;;;;;5083847;28;20072;-84
2023/12/18 01:42:56;;;;;;;15.05;10.82;;;;;;;;;;5083098;28;20060;-84
2023/12/18 01:45:23;;;;;;;17.10;10.10;;;;;;;;;;5068066;28;20075;-84
2023/12/18 01:47:50;;;;;;;13.40;10.00;;;;;;;;;;5068745;28;20086;-84
2023/12/18 01:50:17;;;;;;;16.25;9.43;;;;;;;;;;5084617;28;20071;-84
2023/12/18 01:52:43;;;;;;;19.20;9.52;;;;;;;;;;5082808;28;20049;-83
2023/12/18 01:55:11;;;;;;;13.45;9.95;;;;;;;;;;5071455;28;20053;-82
2023/12/18 01:57:38;;;;;;;25.92;9.35;;;;;;;;;;5084809;28;20044;-84
2023/12/18 02:00:05;;;;;;;16.90;9.90;;;;;;;;;;5083818;28;20674;-83
2023/12/18 02:02:32;;;;;;;18.00;9.27;;;;;;;;;;5084187;28;20055;-84
2023/12/18 02:04:59;;;;;;;17.70;9.05;;;;;;;;;;5087155;28;20074;-84
2023/12/18 02:07:26;;;;;;;12.00;8.32;;;;;;;;;;5070751;28;20112;-85
2023/12/18 02:09:53;;;;;;;11.93;8.45;;;;;;;;;;5084473;28;20056;-84
2023/12/18 02:12:19;;;;;;;14.18;9.30;;;;;;;;;;5079930;28;20087;-85
2023/12/18 02:14:46;;;;;;;11.95;8.40;;;;;;;;;;5082928;28;20353;-84
2023/12/18 02:17:13;;;;;;;17.00;8.63;;;;;;;;;;5084605;28;20419;-84
2023/12/18 02:19:39;;;;;;;12.35;8.70;;;;;;;;;;5083602;28;20057;-85
2023/12/18 02:22:06;;;;;;;11.38;8.45;;;;;;;;;;5083963;28;20060;-84
2023/12/18 02:24:33;;;;;;;12.80;8.43;;;;;;;;;;5068873;28;20044;-84
2023/12/18 02:27:00;;;;;;;11.90;8.50;;;;;;;;;;5082582;28;20052;-83
2023/12/18 02:29:27;;;;;;;11.73;8.70;;;;;;;;;;5065791;28;20048;-83
2023/12/18 02:31:53;;;;;;;15.10;9.75;;;;;;;;;;5083605;28;20088;-83
2023/12/18 02:34:20;;;;;;;13.65;9.27;;;;;;;;;;5082205;28;20044;-83
2023/12/18 02:36:49;;;;;;;11.77;9.13;;;;;;;;;;5082871;28;20112;-83
2023/12/18 02:39:15;;;;;;;13.07;9.90;;;;;;;;;;5081052;28;20119;-83
2023/12/18 02:41:42;;;;;;;13.30;8.93;;;;;;;;;;5083910;28;20048;-84
2023/12/18 02:44:09;;;;;;;10.73;8.43;;;;;;;;;;5083456;28;20106;-85
2023/12/18 02:46:36;;;;;;;12.40;8.45;;;;;;;;;;5077543;28;20502;-85
2023/12/18 02:49:02;;;;;;;11.18;8.82;;;;;;;;;;5071044;28;20135;-84
2023/12/18 02:51:29;;;;;;;12.90;9.40;;;;;;;;;;5077379;28;20044;-83
2023/12/18 02:53:56;;;;;;;11.82;8.55;;;;;;;;;;5079195;28;20063;-84
2023/12/18 02:56:23;;;;;;;13.15;8.43;;;;;;;;;;5079179;28;20052;-83
2023/12/18 02:58:50;;;;;;;11.75;9.13;;;;;;;;;;5078590;28;20136;-84
2023/12/18 03:01:17;;;;;;;12.88;8.55;;;;;;;;;;5078349;28;20052;-84
2023/12/18 03:03:43;;;;;;;13.18;9.73;;;;;;;;;;5077250;28;20045;-84
2023/12/18 03:06:10;;;;;;;12.18;8.90;;;;;;;;;;5058606;28;20052;-85
2023/12/18 03:08:36;;;;;;;14.13;9.25;;;;;;;;;;5078494;28;20048;-84
2023/12/18 03:11:03;;;;;;;12.23;8.55;;;;;;;;;;5063026;28;20080;-84
2023/12/18 03:13:30;;;;;;;12.48;8.85;;;;;;;;;;5062376;28;20437;-83
2023/12/18 03:15:57;;;;;;;11.25;8.77;;;;;;;;;;5076675;28;20139;-84
2023/12/18 03:18:24;;;;;;;12.73;9.05;;;;;;;;;;5082034;28;20052;-84
2023/12/18 03:20:50;;;;;;;11.98;9.00;;;;;;;;;;5080439;28;20086;-84
2023/12/18 03:23:17;;;;;;;12.80;8.93;;;;;;;;;;5081780;28;20060;-83
2023/12/18 03:25:44;;;;;;;15.70;10.18;;;;;;;;;;5085331;28;20469;-83
2023/12/18 03:28:12;;;;;;;12.32;8.55;;;;;;;;;;5084135;28;20053;-83
2023/12/18 03:30:38;;;;;;;10.65;8.73;;;;;;;;;;5083960;28;20057;-83
2023/12/18 03:33:05;;;;;;;11.00;8.65;;;;;;;;;;5067376;28;20060;-82
2023/12/18 03:35:32;;;;;;;12.13;8.57;;;;;;;;;;5083765;28;20133;-82
2023/12/18 03:37:58;;;;;;;13.25;8.68;;;;;;;;;;5067828;28;20052;-82
2023/12/18 03:40:25;;;;;;;11.45;8.63;;;;;;;;;;5084942;28;20434;-83
2023/12/18 03:42:51;;;;;;;11.95;8.80;;;;;;;;;;5084834;28;20530;-82
2023/12/18 03:45:18;;;;;;;11.48;8.73;;;;;;;;;;5084642;28;20045;-82
2023/12/18 03:47:45;;;;;;;10.02;7.80;;;;;;;;;;5084090;28;20057;-82
2023/12/18 03:50:12;;;;;;;11.63;8.48;;;;;;;;;;5085004;28;20481;-83
2023/12/18 03:52:38;;;;;;;11.95;8.93;;;;;;;;;;5067470;28;20091;-85
2023/12/18 03:55:05;;;;;;;10.35;7.90;;;;;;;;;;5091160;28;20078;-84
2023/12/18 03:57:32;;;;;;;10.27;7.18;;;;;;;;;;5093414;28;20345;-85
2023/12/18 03:59:59;;;;;;;12.25;8.25;;;;;;;;;;5087823;28;20052;-85
2023/12/18 04:02:25;;;;;;;12.43;9.23;;;;;;;;;;5071146;28;20052;-85
2023/12/18 04:04:52;;;;;;;11.30;8.55;;;;;;;;;;5088411;28;20057;-85
2023/12/18 04:07:19;;;;;;;10.77;8.40;;;;;;;;;;5071891;28;20558;-85
2023/12/18 04:09:46;;;;;;;10.65;7.93;;;;;;;;;;5063193;28;20139;-86
2023/12/18 04:12:12;;;;;;;9.93;7.97;;;;;;;;;;5049597;28;20140;-85
2023/12/18 04:14:41;;;;;;;11.70;8.05;;;;;;;;;;5051875;28;20086;-84
2023/12/18 04:17:07;;;;;;;11.55;8.35;;;;;;;;;;5056852;28;20063;-83
2023/12/18 04:19:34;;;;;;;11.88;8.45;;;;;;;;;;5084224;28;20104;-86
2023/12/18 04:22:00;;;;;;;10.68;8.43;;;;;;;;;;5090003;28;20048;-85
2023/12/18 04:24:28;;;;;;;9.80;8.05;;;;;;;;;;5092911;28;20052;-85
2023/12/18 04:26:55;;;;;;;10.05;7.75;;;;;;;;;;5087707;28;20044;-85
2023/12/18 04:29:22;;;;;;;10.27;8.35;;;;;;;;;;5089582;28;20120;-85
2023/12/18 04:31:51;;;;;;;12.50;8.68;;;;;;;;;;5088693;28;20469;-85
2023/12/18 04:34:18;;;;;;;10.82;7.85;;;;;;;;;;5090450;28;20084;-85
2023/12/18 04:36:45;;;;;;;10.23;7.75;;;;;;;;;;5090471;28;20060;-85
2023/12/18 04:39:14;;;;;;;10.45;7.45;;;;;;;;;;5076297;28;20104;-83
2023/12/18 04:41:40;;;;;;;10.45;7.90;;;;;;;;;;5074778;28;20075;-84
2023/12/18 04:44:07;;;;;;;10.77;8.25;;;;;;;;;;5089178;28;20079;-84
2023/12/18 04:46:37;;;;;;;14.07;9.48;;;;;;;;;;5091579;28;20045;-84
2023/12/18 04:49:04;;;;;;;11.63;8.73;;;;;;;;;;5091677;28;20131;-83
2023/12/18 04:51:30;;;;;;;10.27;8.00;;;;;;;;;;5070490;28;20067;-84
2023/12/18 04:53:57;;;;;;;11.00;7.25;;;;;;;;;;5085984;28;20137;-84
2023/12/18 04:56:24;;;;;;;10.07;7.88;;;;;;;;;;5088749;28;20052;-84
2023/12/18 04:58:51;;;;;;;12.43;8.60;;;;;;;;;;5090426;28;20116;-84
2023/12/18 05:01:18;;;;;;;10.52;8.10;;;;;;;;;;5092034;28;20049;-84
2023/12/18 05:03:45;;;;;;;11.60;7.70;;;;;;;;;;5091302;28;20086;-84
2023/12/18 05:06:22;;;;;;;10.23;7.88;;;;;;;;;;5090835;28;20056;-83
2023/12/18 05:08:49;;;;;;;10.27;7.35;;;;;;;;;;5066526;28;20095;-84
2023/12/18 05:11:16;;;;;;;12.95;8.43;;;;;;;;;;5085492;28;20056;-84
2023/12/18 05:13:43;;;;;;;12.45;9.23;;;;;;;;;;5066322;28;20049;-84
2023/12/18 05:16:09;;;;;;;10.75;8.88;;;;;;;;;;5100118;28;20076;-83
2023/12/18 05:18:36;;;;;;;13.57;9.15;;;;;;;;;;5087497;28;20064;-84
2023/12/18 05:21:03;;;;;;;12.38;10.02;;;;;;;;;;5068131;28;20044;-83
2023/12/18 05:23:30;;;;;;;11.27;8.68;;;;;;;;;;5079391;28;20044;-83
2023/12/18 05:25:57;;;;;;;12.48;8.98;;;;;;;;;;5082649;28;20048;-84
2023/12/18 05:28:24;;;;;;;10.50;7.65;;;;;;;;;;5088900;28;20048;-83
2023/12/18 05:30:51;;;;;;;9.63;7.32;;;;;;;;;;5067637;28;20048;-83
2023/12/18 05:33:18;;;;;;;11.88;8.65;;;;;;;;;;5066901;28;20050;-85
2023/12/18 05:35:45;;;;;;;11.93;8.38;;;;;;;;;;5052682;28;20052;-86
2023/12/18 05:38:11;;;;;;;10.00;7.72;;;;;;;;;;5089725;28;20079;-86
2023/12/18 05:40:38;;;;;;;9.63;7.05;;;;;;;;;;5076198;28;20068;-84
2023/12/18 05:43:05;;;;;;;10.52;8.15;;;;;;;;;;5075508;28;20044;-85
2023/12/18 05:45:32;;;;;;;10.27;7.95;;;;;;;;;;5074781;28;20129;-85
2023/12/18 05:48:02;;;;;;;9.68;7.78;;;;;;;;;;5076227;28;20047;-85
2023/12/18 05:50:29;;;;;;;11.98;8.60;;;;;;;;;;5100800;28;20055;-85
2023/12/18 05:52:56;;;;;;;12.00;8.25;;;;;;;;;;5094197;28;20044;-84
2023/12/18 05:55:23;;;;;;;11.95;8.75;;;;;;;;;;5080174;28;20040;-86
2023/12/18 05:57:50;;;;;;;10.98;8.95;;;;;;;;;;5104106;28;20056;-86
2023/12/18 06:00:17;;;;;;;10.57;7.80;;;;;;;;;;5085876;28;20143;-84
2023/12/18 06:02:44;;;;;;;10.98;8.27;;;;;;;;;;5098833;28;20044;-87
2023/12/18 06:05:11;;;;;;;10.38;7.38;;;;;;;;;;5092142;28;20048;-88
2023/12/18 06:07:38;;;;;;;9.85;7.82;;;;;;;;;;5078010;28;20080;-85
2023/12/18 06:10:07;;;;;;;9.82;7.10;;;;;;;;;;5096608;28;20047;-86
2023/12/18 06:12:34;;;;;;;9.38;7.43;;;;;;;;;;5097229;28;20079;-86
2023/12/18 06:15:01;;;;;;;11.20;7.88;;;;;;;;;;5096337;28;20159;-86
2023/12/18 06:17:27;;;;;;;11.27;8.63;;;;;;;;;;5094167;28;20049;-86
2023/12/18 06:19:54;;;;;;;11.00;8.63;;;;;;;;;;5070406;28;20053;-88
2023/12/18 06:22:22;;;;;;;10.35;7.68;;;;;;;;;;5083093;28;20555;-87
2023/12/18 06:24:49;;;;;;;9.82;8.10;;;;;;;;;;5077041;28;20086;-86
2023/12/18 06:27:15;;;;;;;11.25;8.48;;;;;;;;;;5060370;28;20049;-87
2023/12/18 06:29:43;;;;;;;12.15;9.13;;;;;;;;;;5064153;28;20045;-84
2023/12/18 06:32:09;;;;;;;9.93;7.72;;;;;;;;;;5091145;28;20052;-85
2023/12/18 06:34:38;;;;;;;10.45;8.13;;;;;;;;;;5054404;28;20048;-84
2023/12/18 06:37:05;;;;;;;11.77;8.68;;;;;;;;;;5059316;28;20060;-86
2023/12/18 06:39:32;;;;;;;14.95;10.63;;;;;;;;;;5074379;28;20049;-85
2023/12/18 06:41:58;;;;;;;11.80;9.05;;;;;;;;;;5052417;28;20048;-85
2023/12/18 06:44:25;;;;;;;12.23;8.98;;;;;;;;;;5085428;28;20392;-82
2023/12/18 06:46:52;;;;;;;15.32;9.38;;;;;;;;;;5098320;28;20072;-82
2023/12/18 06:49:18;;;;;;;12.70;8.73;;;;;;;;;;5074714;28;20139;-82
2023/12/18 06:51:45;;;;;;;13.50;9.00;;;;;;;;;;5067345;28;20044;-81
2023/12/18 06:54:12;;;;;;;12.98;9.35;;;;;;;;;;5085948;28;20137;-81
2023/12/18 06:56:38;;;;;;;13.20;9.18;;;;;;;;;;5089672;28;20487;-83
2023/12/18 06:59:06;;;;;;;14.02;9.30;;;;;;;;;;5074797;28;20108;-81
2023/12/18 07:01:32;;;;;;;15.18;9.55;;;;;;;;;;5074624;28;20049;-81
2023/12/18 07:03:59;;;;;;;16.45;10.52;;;;;;;;;;5083486;28;20466;-81
2023/12/18 07:06:26;;;;;;;13.27;9.27;;;;;;;;;;5057784;28;20055;-82
2023/12/18 07:08:53;;;;;;;12.50;9.88;;;;;;;;;;5077283;28;20094;-81
2023/12/18 07:11:19;;;;;;;15.13;10.15;;;;;;;;;;5055520;28;20460;-80
2023/12/18 07:13:46;;;;;;;12.82;9.55;;;;;;;;;;5082838;28;20354;-82
2023/12/18 07:16:20;;;;;;;12.40;9.05;;;;;;;;;;5071421;28;20055;-82
2023/12/18 07:18:46;;;;;;;13.18;9.57;;;;;;;;;;5072915;28;20445;-81
2023/12/18 07:21:13;;;;;;;11.55;9.00;;;;;;;;;;5071994;28;20548;-81
2023/12/18 07:23:42;;;;;;;15.18;9.70;;;;;;;;;;5075424;28;20055;-81
2023/12/18 07:26:12;;;;;;;11.93;8.60;;;;;;;;;;5079187;28;20078;-81
2023/12/18 07:28:39;;;;;;;13.35;9.20;;;;;;;;;;5073045;28;20100;-81
2023/12/18 07:31:06;;;;;;;13.88;9.02;;;;;;;;;;5073438;28;20163;-80
2023/12/18 07:33:33;;;;;;;14.07;10.40;;;;;;;;;;5057818;28;20072;-81
2023/12/18 07:35:59;;;;;;;13.55;10.00;;;;;;;;;;5070140;28;20047;-80
2023/12/18 07:38:26;;;;;;;14.13;10.63;;;;;;;;;;5083791;28;20486;-79
2023/12/18 07:40:53;;;;;;;14.73;10.32;;;;;;;;;;5072703;28;20070;-81
2023/12/18 07:43:19;;;;;;;16.20;11.52;;;;;;;;;;5074920;28;20075;-81
2023/12/18 07:45:46;;;;;;;15.00;10.30;;;;;;;;;;5080143;28;20413;-80
2023/12/18 07:48:12;;;;;;;13.45;10.05;;;;;;;;;;5079928;28;20053;-83
2023/12/18 07:50:39;;;;;;;14.13;10.45;;;;;;;;;;5071476;28;20084;-79
2023/12/18 07:53:06;;;;;;;16.27;11.25;;;;;;;;;;5073516;28;20151;-80
2023/12/18 07:55:34;;;;;;;12.73;9.52;;;;;;;;;;5059297;28;20135;-80
2023/12/18 07:58:03;;;;;;;11.25;8.68;;;;;;;;;;5052791;28;20052;-80
2023/12/18 08:00:30;;;;;;;12.60;8.90;;;;;;;;;;5069078;28;20079;-81
2023/12/18 08:03:01;;;;;;;12.43;8.73;;;;;;;;;;5070180;28;20041;-81
2023/12/18 08:05:28;;;;;;;13.38;9.23;;;;;;;;;;5056268;28;20071;-81
2023/12/18 08:07:55;;;;;;;11.77;8.77;;;;;;;;;;5059379;28;20052;-83
2023/12/18 08:10:22;;;;;;;13.02;8.98;;;;;;;;;;5071403;28;20052;-81
2023/12/18 08:12:48;;;;;;;12.07;9.20;;;;;;;;;;5075467;28;20048;-80
2023/12/18 08:15:15;;;;;;;13.18;8.95;;;;;;;;;;5075863;28;20052;-83
2023/12/18 08:17:42;;;;;;;14.07;10.05;;;;;;;;;;5078024;28;20048;-81
2023/12/18 08:20:09;;;;;;;15.23;9.50;;;;;;;;;;5080289;28;20059;-81
2023/12/18 08:22:36;;;;;;;14.63;9.57;;;;;;;;;;5060404;28;20418;-84
2023/12/18 08:25:02;;;;;;;14.25;9.15;;;;;;;;;;5079357;28;20044;-79
2023/12/18 08:27:32;;;;;;;15.95;10.68;;;;;;;;;;5074297;28;20520;-80
2023/12/18 08:29:59;;;;;;;14.57;9.98;;;;;;;;;;5072344;28;20115;-80
2023/12/18 08:32:25;;;;;;;16.73;9.68;;;;;;;;;;5081620;28;20072;-80
2023/12/18 08:34:52;;;;;;;16.48;9.90;;;;;;;;;;5059324;28;20052;-79
2023/12/18 08:37:19;;;;;;;14.40;9.52;;;;;;;;;;5072353;28;20055;-78
2023/12/18 08:39:45;;;;;;;14.48;9.65;;;;;;;;;;5075753;28;20136;-81
2023/12/18 08:42:12;;;;;;;12.30;9.52;;;;;;;;;;5075390;28;20414;-80
2023/12/18 08:44:39;;;;;;;12.45;9.57;;;;;;;;;;5075247;28;20052;-80
2023/12/18 08:47:06;;;;;;;13.52;9.20;;;;;;;;;;5076479;28;20124;-79
2023/12/18 08:49:32;;;;;;;13.15;9.77;;;;;;;;;;5076370;28;20075;-79
2023/12/18 08:51:59;;;;;;;13.60;8.73;;;;;;;;;;5077627;28;20143;-79
2023/12/18 08:54:26;;;;;;;13.48;10.05;;;;;;;;;;5056890;28;20060;-80
2023/12/18 08:56:52;;;;;;;13.82;9.68;;;;;;;;;;5074809;28;20056;-80
2023/12/18 08:59:19;;;;;;;13.32;10.23;;;;;;;;;;5076836;28;20450;-79
2023/12/18 09:01:47;;;;;;;15.57;10.98;;;;;;;;;;5076770;28;20048;-79
2023/12/18 09:04:14;;;;;;;15.25;10.65;;;;;;;;;;5058557;28;20128;-79
2023/12/18 09:06:41;;;;;;;17.50;10.18;;;;;;;;;;5078012;28;20111;-80
2023/12/18 09:09:07;;;;;;;15.88;9.57;;;;;;;;;;5077089;28;20078;-79
2023/12/18 09:11:35;;;;;;;14.05;10.50;;;;;;;;;;5061840;28;20127;-79
2023/12/18 09:14:03;;;;;;;12.90;9.90;;;;;;;;;;5072015;28;20489;-79
2023/12/18 09:16:30;;;;;;;12.60;8.93;;;;;;;;;;5066456;28;20052;-79
2023/12/18 09:18:56;;;;;;;15.35;9.52;;;;;;;;;;5071748;28;20060;-78
2023/12/18 09:21:23;;;;;;;14.55;10.60;;;;;;;;;;5057532;28;20052;-80
2023/12/18 09:23:50;;;;;;;14.15;9.82;;;;;;;;;;5074914;28;20049;-80
2023/12/18 09:26:16;;;;;;;11.85;9.10;;;;;;;;;;5057838;28;20132;-80
2023/12/18 09:28:43;;;;;;;12.32;9.25;;;;;;;;;;5073004;28;20054;-80
2023/12/18 09:31:17;;;;;;;15.13;10.15;;;;;;;;;;5051452;28;20056;-80
2023/12/18 09:33:45;;;;;;;13.07;9.60;;;;;;;;;;5057207;28;20044;-81
2023/12/18 09:36:12;;;;;;;14.68;9.70;;;;;;;;;;5072651;28;20087;-80
2023/12/18 09:38:40;;;;;;;13.30;9.00;;;;;;;;;;5075959;28;20056;-80
2023/12/18 09:41:07;;;;;;;15.80;10.15;;;;;;;;;;5074651;28;20063;-79
2023/12/18 09:43:35;;;;;;;12.82;10.00;;;;;;;;;;5057122;28;20063;-80
2023/12/18 09:46:02;;;;;;;13.90;9.93;;;;;;;;;;5075879;28;20532;-79
2023/12/18 09:48:29;;;;;;;13.65;10.48;;;;;;;;;;5060608;28;20047;-80
2023/12/18 09:50:57;;;;;;;14.55;10.50;;;;;;;;;;5060658;28;20143;-79
2023/12/18 09:53:26;;;;;;;13.15;9.38;;;;;;;;;;5075510;28;20075;-80
2023/12/18 09:55:54;;;;;;;14.30;10.27;;;;;;;;;;5061048;28;20080;-80
2023/12/18 09:58:21;;;;;;;17.80;11.10;;;;;;;;;;5082808;28;20076;-80
2023/12/18 10:00:49;;;;;;;16.85;9.75;;;;;;;;;;5085356;28;20076;-80
2023/12/18 10:03:18;;;;;;;14.27;9.88;;;;;;;;;;5078944;28;20056;-80
2023/12/18 10:05:46;;;;;;;15.65;10.93;;;;;;;;;;5078299;28;20076;-80
2023/12/18 10:08:13;;;;;;;13.07;9.77;;;;;;;;;;5078600;28;20082;-80
2023/12/18 10:10:40;;;;;;;13.10;10.60;;;;;;;;;;5059911;28;20094;-80
2023/12/18 10:13:08;;;;;;;14.80;10.82;;;;;;;;;;5074847;28;20075;-80
2023/12/18 10:15:35;;;;;;;13.90;9.95;;;;;;;;;;5078313;28;20102;-80
2023/12/18 10:18:03;;;;;;;13.43;9.43;;;;;;;;;;5079063;28;20059;-80
2023/12/18 10:20:30;;;;;;;14.30;10.48;;;;;;;;;;5078643;28;20048;-81
2023/12/18 10:22:57;;;;;;;12.38;10.05;;;;;;;;;;5075694;28;20055;-80
2023/12/18 10:25:24;;;;;;;11.98;9.82;;;;;;;;;;5062065;28;20108;-80
2023/12/18 10:27:54;;;;;;;13.82;9.73;;;;;;;;;;5062009;28;20088;-80
2023/12/18 10:30:25;;;;;;;14.25;9.95;;;;;;;;;;5075430;28;20134;-80
2023/12/18 10:32:52;;;;;;;12.52;9.23;;;;;;;;;;5078060;28;20052;-81
2023/12/18 10:35:19;;;;;;;12.77;10.20;;;;;;;;;;5077317;28;20063;-80
2023/12/18 10:37:52;;;;;;;15.30;10.13;;;;;;;;;;5063740;28;20078;-80
2023/12/18 10:40:20;;;;;;;10.70;9.18;;;;;;;;;;5075148;28;20114;-81
2023/12/18 10:42:51;;;;;;;11.45;8.70;;;;;;;;;;5075942;28;20496;-81
2023/12/18 10:45:18;;;;;;;12.02;8.43;;;;;;;;;;5072983;28;20048;-79
2023/12/18 10:47:46;;;;;;;9.90;8.00;;;;;;;;;;5069300;28;20968;-80
2023/12/18 10:50:13;;;;;;;10.73;8.68;;;;;;;;;;5071515;28;20055;-80
2023/12/18 10:52:39;;;;;;;11.88;8.23;;;;;;;;;;5062631;28;20052;-81
2023/12/18 10:55:10;;;;;;;13.27;8.85;;;;;;;;;;5065810;28;20048;-80
2023/12/18 10:57:37;;;;;;;12.45;8.38;;;;;;;;;;5060223;28;20056;-80
2023/12/18 11:00:04;;;;;;;16.25;9.25;;;;;;;;;;5077248;28;20053;-80
2023/12/18 11:02:30;;;;;;;13.30;9.77;;;;;;;;;;5077578;28;20134;-81
2023/12/18 11:04:57;;;;;;;14.20;9.55;;;;;;;;;;5080070;28;20043;-80
2023/12/18 11:07:25;;;;;;;9.25;7.95;;;;;;;;;;5064001;28;20507;-80
2023/12/18 11:09:53;;;;;;;10.75;7.72;;;;;;;;;;5062350;28;20048;-80
2023/12/18 11:12:20;;;;;;;9.95;7.97;;;;;;;;;;5075798;28;20044;-80
2023/12/18 11:15:02;;;;;;;14.15;8.55;;;;;;;;;;5056473;28;20048;-80
2023/12/18 11:17:36;;;;;;;10.63;7.55;;;;;;;;;;5089526;28;20139;-80
2023/12/18 11:20:08;;;;;;;11.18;7.68;;;;;;;;;;5069241;28;20109;-80
2023/12/18 11:22:39;;;;;;;13.07;8.05;;;;;;;;;;5089233;28;20048;-80
2023/12/18 11:25:07;;;;;;;9.13;7.22;;;;;;;;;;5083859;28;20079;-81
2023/12/18 11:27:33;;;;;;;11.80;7.97;;;;;;;;;;5073477;28;20048;-80
2023/12/18 11:30:00;;;;;;;10.65;7.50;;;;;;;;;;5049920;28;20103;-80
2023/12/18 11:32:45;;;;;;;8.15;7.30;;;;;;;;;;5056301;28;20052;-79
2023/12/18 11:35:13;;;;;;;8.65;6.47;;;;;;;;;;5053222;28;20513;-80
2023/12/18 11:37:46;;;;;;;12.20;7.43;;;;;;;;;;5057094;28;20052;-84
2023/12/18 11:40:13;;;;;;;;;;;;;;;;;;5061622;28;20052;-79
2023/12/18 11:42:46;;;;;;;8.60;6.70;;;;;;;;;;5078682;28;20461;-80
2023/12/18 11:45:13;;;;;;;10.18;6.93;;;;;;;;;;5062178;28;20094;-80
2023/12/18 11:47:39;;;;;;;10.13;7.10;;;;;;;;;;5062466;28;20045;-80
2023/12/18 11:50:06;;;;;;;9.10;6.55;;;;;;;;;;5074110;28;20114;-80
2023/12/18 11:52:33;;;;;;;9.10;6.35;;;;;;;;;;5076303;28;20178;-81
2023/12/18 11:55:00;;;;;;;9.50;6.82;;;;;;;;;;5076111;28;20116;-81
2023/12/18 11:57:27;;;;;;;8.30;6.03;;;;;;;;;;5053091;28;20060;-81
2023/12/18 11:59:54;;;;;;;9.07;6.72;;;;;;;;;;5056499;28;20056;-81
2023/12/18 12:02:21;;;;;;;7.78;5.88;;;;;;;;;;5072519;28;20044;-79
2023/12/18 12:04:48;;;;;;;8.73;6.95;;;;;;;;;;5062836;28;20048;-80
2023/12/18 12:07:15;;;;;;;7.97;5.85;;;;;;;;;;5071238;28;20083;-80
2023/12/18 12:09:43;;;;;;;8.27;6.93;;;;;;;;;;5074606;28;20492;-80
2023/12/18 12:12:12;;;;;;;8.63;7.03;;;;;;;;;;5075136;28;20041;-80
2023/12/18 12:14:39;;;;;;;10.13;6.68;;;;;;;;;;5074003;28;20044;-80
2023/12/18 12:17:06;;;;;;;9.45;6.88;;;;;;;;;;5060728;28;20098;-79
2023/12/18 12:19:35;;;;;;;9.40;6.88;;;;;;;;;;5065895;28;20052;-80
2023/12/18 12:22:02;;;;;;;10.85;6.97;;;;;;;;;;5081798;28;20048;-79
2023/12/18 12:24:29;;;;;;;8.88;6.80;;;;;;;;;;5073284;28;20244;-80
2023/12/18 12:26:59;;;;;;;12.18;6.90;;;;;;;;;;5076300;28;20049;-80
2023/12/18 12:29:26;;;;;;;8.20;6.65;;;;;;;;;;5071325;28;20055;-80
2023/12/18 12:31:53;;;;;;;9.35;7.45;;;;;;;;;;5076606;28;20101;-80
2023/12/18 12:34:32;;;;;;;9.38;6.10;;;;;;;;;;5078275;28;20419;-80
2023/12/18 12:37:03;;;;;;;10.90;6.78;;;;;;;;;;5074236;28;20050;-80
2023/12/18 12:39:31;;;;;;;9.25;6.70;;;;;;;;;;5058785;28;20159;-80
2023/12/18 12:41:58;;;;;;;9.30;6.63;;;;;;;;;;5061881;28;20080;-80
2023/12/18 12:44:26;;;;;;;11.57;6.82;;;;;;;;;;5060154;28;20084;-81
2023/12/18 12:46:54;;;;;;;8.10;6.05;;;;;;;;;;5079994;28;20453;-80
2023/12/18 12:49:20;;;;;;;8.65;6.50;;;;;;;;;;5076412;28;20056;-81
2023/12/18 12:51:47;;;;;;;10.15;6.00;;;;;;;;;;5077759;28;20051;-80
2023/12/18 12:54:14;;;;;;;10.63;6.07;;;;;;;;;;5075783;28;20053;-81
2023/12/18 12:56:41;;;;;;;10.05;6.97;;;;;;;;;;5062784;28;20059;-80
2023/12/18 12:59:08;;;;;;;11.52;6.68;;;;;;;;;;5062322;28;20057;-81
2023/12/18 13:01:35;;;;;;;6.90;6.00;;;;;;;;;;5077220;28;20682;-80
2023/12/18 13:04:01;;;;;;;9.68;5.93;;;;;;;;;;5076002;28;20053;-80
2023/12/18 13:06:28;;;;;;;8.98;6.18;;;;;;;;;;5076093;28;20078;-80
2023/12/18 13:08:55;;;;;;;8.88;6.90;;;;;;;;;;5058941;28;20112;-80
2023/12/18 13:11:22;;;;;;;8.57;6.32;;;;;;;;;;5074785;28;20123;-81
2023/12/18 13:13:49;;;;;;;9.13;6.75;;;;;;;;;;5075786;28;20102;-79
2023/12/18 13:16:18;;;;;;;8.88;6.50;;;;;;;;;;5075618;28;20072;-79
2023/12/18 13:18:44;;;;;;;7.93;6.30;;;;;;;;;;5073079;28;20087;-80
2023/12/18 13:21:11;;;;;;;9.60;5.70;;;;;;;;;;5076510;28;20410;-79
2023/12/18 13:23:38;;;;;;;10.38;6.18;;;;;;;;;;5093941;28;20076;-79
2023/12/18 13:26:05;;;;;;;8.55;6.28;;;;;;;;;;5062568;28;20040;-80
2023/12/18 13:28:32;;;;;;;7.18;5.70;;;;;;;;;;5063421;28;20489;-80
2023/12/18 13:30:58;;;;;;;7.18;6.20;;;;;;;;;;5076002;28;20060;-80
2023/12/18 13:33:25;;;;;;;7.82;6.25;;;;;;;;;;5060045;28;20060;-79
2023/12/18 13:35:52;;;;;;;6.97;5.78;;;;;;;;;;5075253;28;20095;-80
2023/12/18 13:38:20;;;;;;;7.72;6.03;;;;;;;;;;5075799;28;20067;-80
2023/12/18 13:40:47;;;;;;;7.88;5.85;;;;;;;;;;5071668;28;20155;-80
2023/12/18 13:43:14;;;;;;;8.75;5.45;;;;;;;;;;5060484;28;20520;-79
2023/12/18 13:45:41;;;;;;;8.90;6.40;;;;;;;;;;5076720;28;20049;-81
2023/12/18 13:48:09;;;;;;;8.65;6.07;;;;;;;;;;5073994;28;20045;-80
2023/12/18 13:50:38;;;;;;;8.38;5.80;;;;;;;;;;5076586;28;20111;-79
2023/12/18 13:53:05;;;;;;;9.05;6.57;;;;;;;;;;5055310;28;20047;-81
2023/12/18 13:55:32;;;;;;;7.28;5.65;;;;;;;;;;5065123;28;20238;-80
2023/12/18 13:57:59;;;;;;;9.35;5.90;;;;;;;;;;5077528;28;20049;-81
2023/12/18 14:00:25;;;;;;;8.80;6.30;;;;;;;;;;5063481;28;20060;-81
2023/12/18 14:02:52;;;;;;;6.70;5.70;;;;;;;;;;5076032;28;20583;-80
2023/12/18 14:05:20;;;;;;;9.35;5.38;;;;;;;;;;5073308;28;20048;-80
2023/12/18 14:07:47;;;;;;;8.40;5.95;;;;;;;;;;5074232;28;20142;-80
2023/12/18 14:10:15;;;;;;;7.22;5.70;;;;;;;;;;5058086;28;20049;-81
2023/12/18 14:12:42;;;;;;;9.45;6.18;;;;;;;;;;5060282;28;20044;-80
2023/12/18 14:15:13;;;;;;;12.07;6.82;;;;;;;;;;5072754;28;20055;-80
2023/12/18 14:17:41;;;;;;;8.52;6.57;;;;;;;;;;5069825;28;20048;-80
2023/12/18 14:20:09;;;;;;;9.52;6.68;;;;;;;;;;5058865;28;20051;-83
2023/12/18 14:22:37;;;;;;;8.55;6.07;;;;;;;;;;5073708;28;20068;-81
2023/12/18 14:25:09;;;;;;;9.38;6.40;;;;;;;;;;5073460;28;20052;-82
2023/12/18 14:27:38;;;;;;;10.30;6.40;;;;;;;;;;5074696;28;20075;-81
2023/12/18 14:30:05;;;;;;;7.65;5.82;;;;;;;;;;5072731;28;20076;-81